sensor_id;sensor_type;location;lat;lon;timestamp;pressure;altitude;pressure_sealevel;temperature;humidity
21960;BME280;11144;43.030;25.108;2023-04-22T00:00:20;98931.41;;;10.58;100.00
21960;BME280;11144;43.030;25.108;2023-04-22T00:01:52;98933.00;;;10.62;100.00
21960;BME280;11144;43.030;25.108;2023-04-22T00:03:26;98929.44;;;10.63;100.00
21960;BME280;11144;43.030;25.108;2023-04-22T00:05:00;98930.03;;;10.70;100.00
21960;BME280;11144;43.030;25.108;2023-04-22T00:06:34;98932.59;;;10.71;100.00
21960;BME280;11144;43.030;25.108;2023-04-22T00:08:09;98929.06;;;10.72;100.00
21960;BME280;11144;43.030;25.108;2023-04-22T00:09:42;98930.91;;;10.70;100.00
21960;BME280;11144;43.030;25.108;2023-04-22T00:11:16;98931.63;;;10.74;100.00
21960;BME280;11144;43.030;25.108;2023-04-22T00:12:48;98923.78;;;10.72;100.00
21960;BME280;11144;43.030;25.108;2023-04-22T00:14:22;98924.03;;;10.66;100.00
21960;BME280;11144;43.030;25.108;2023-04-22T00:15:55;98924.16;;;10.63;100.00
21960;BME280;11144;43.030;25.108;2023-04-22T00:17:28;98920.72;;;10.61;100.00
21960;BME280;11144;43.030;25.108;2023-04-22T00:19:00;98928.50;;;10.64;100.00
21960;BME280;11144;43.030;25.108;2023-04-22T00:20:34;98924.09;;;10.65;100.00
21960;BME280;11144;43.030;25.108;2023-04-22T00:22:07;98931.25;;;10.63;100.00
21960;BME280;11144;43.030;25.108;2023-04-22T00:23:41;98919.72;;;10.64;100.00
21960;BME280;11144;43.030;25.108;2023-04-22T00:25:16;98927.59;;;10.65;100.00
21960;BME280;11144;43.030;25.108;2023-04-22T00:26:48;98932.88;;;10.65;100.00
21960;BME280;11144;43.030;25.108;2023-04-22T00:28:22;98931.16;;;10.64;100.00
21960;BME280;11144;43.030;25.108;2023-04-22T00:29:55;98940.00;;;10.63;100.00
21960;BME280;11144;43.030;25.108;2023-04-22T00:31:29;98939.88;;;10.66;100.00
21960;BME280;11144;43.030;25.108;2023-04-22T00:33:03;98941.59;;;10.67;100.00
21960;BME280;11144;43.030;25.108;2023-04-22T00:34:35;98936.44;;;10.64;100.00
21960;BME280;11144;43.030;25.108;2023-04-22T00:36:09;98943.34;;;10.68;100.00
21960;BME280;11144;43.030;25.108;2023-04-22T00:37:43;98941.47;;;10.70;100.00
21960;BME280;11144;43.030;25.108;2023-04-22T00:39:18;98936.19;;;10.70;100.00
21960;BME280;11144;43.030;25.108;2023-04-22T00:40:51;98936.19;;;10.70;100.00
21960;BME280;11144;43.030;25.108;2023-04-22T00:42:24;98939.63;;;10.72;100.00
21960;BME280;11144;43.030;25.108;2023-04-22T00:43:59;98938.56;;;10.76;100.00
21960;BME280;11144;43.030;25.108;2023-04-22T00:45:33;98932.34;;;10.77;100.00
21960;BME280;11144;43.030;25.108;2023-04-22T00:47:07;98930.59;;;10.78;100.00
21960;BME280;11144;43.030;25.108;2023-04-22T00:48:41;98938.28;;;10.82;100.00
21960;BME280;11144;43.030;25.108;2023-04-22T00:50:15;98938.22;;;10.84;100.00
21960;BME280;11144;43.030;25.108;2023-04-22T00:51:48;98937.97;;;10.90;100.00
21960;BME280;11144;43.030;25.108;2023-04-22T00:53:20;98940.44;;;10.94;100.00
21960;BME280;11144;43.030;25.108;2023-04-22T00:54:55;98941.28;;;10.95;100.00
21960;BME280;11144;43.030;25.108;2023-04-22T00:56:30;98943.16;;;10.93;100.00
21960;BME280;11144;43.030;25.108;2023-04-22T00:58:04;98936.09;;;10.92;100.00
21960;BME280;11144;43.030;25.108;2023-04-22T00:59:38;98939.75;;;10.89;100.00
21960;BME280;11144;43.030;25.108;2023-04-22T01:01:12;98933.94;;;10.81;100.00
21960;BME280;11144;43.030;25.108;2023-04-22T01:02:46;98934.34;;;10.72;100.00
21960;BME280;11144;43.030;25.108;2023-04-22T01:04:20;98936.84;;;10.75;100.00
21960;BME280;11144;43.030;25.108;2023-04-22T01:05:55;98935.94;;;10.76;100.00
21960;BME280;11144;43.030;25.108;2023-04-22T01:07:29;98942.94;;;10.77;100.00
21960;BME280;11144;43.030;25.108;2023-04-22T01:09:03;98941.22;;;10.76;100.00
21960;BME280;11144;43.030;25.108;2023-04-22T01:10:37;98938.13;;;10.67;100.00
21960;BME280;11144;43.030;25.108;2023-04-22T01:12:11;98939.16;;;10.63;100.00
21960;BME280;11144;43.030;25.108;2023-04-22T01:13:45;98941.88;;;10.61;100.00
21960;BME280;11144;43.030;25.108;2023-04-22T01:15:17;98949.81;;;10.61;100.00
21960;BME280;11144;43.030;25.108;2023-04-22T01:16:51;98942.78;;;10.60;100.00
21960;BME280;11144;43.030;25.108;2023-04-22T01:18:25;98951.69;;;10.58;100.00
21960;BME280;11144;43.030;25.108;2023-04-22T01:20:00;98938.81;;;10.50;100.00
21960;BME280;11144;43.030;25.108;2023-04-22T01:21:35;98950.19;;;10.52;100.00
21960;BME280;11144;43.030;25.108;2023-04-22T01:23:16;98952.81;;;10.52;100.00
21960;BME280;11144;43.030;25.108;2023-04-22T01:24:50;98949.13;;;10.56;100.00
21960;BME280;11144;43.030;25.108;2023-04-22T01:26:24;98937.44;;;10.62;100.00
21960;BME280;11144;43.030;25.108;2023-04-22T01:27:58;98950.72;;;10.60;100.00
21960;BME280;11144;43.030;25.108;2023-04-22T01:29:32;98940.88;;;10.64;100.00
21960;BME280;11144;43.030;25.108;2023-04-22T01:31:05;98934.59;;;10.66;100.00
21960;BME280;11144;43.030;25.108;2023-04-22T01:32:39;98937.13;;;10.69;100.00
21960;BME280;11144;43.030;25.108;2023-04-22T01:34:13;98928.19;;;10.72;100.00
21960;BME280;11144;43.030;25.108;2023-04-22T01:35:45;98929.06;;;10.72;100.00
21960;BME280;11144;43.030;25.108;2023-04-22T01:37:18;98932.47;;;10.74;100.00
21960;BME280;11144;43.030;25.108;2023-04-22T01:38:53;98935.94;;;10.76;100.00
21960;BME280;11144;43.030;25.108;2023-04-22T01:40:27;98936.00;;;10.75;100.00
21960;BME280;11144;43.030;25.108;2023-04-22T01:42:01;98927.47;;;10.68;100.00
21960;BME280;11144;43.030;25.108;2023-04-22T01:43:34;98922.56;;;10.59;100.00
21960;BME280;11144;43.030;25.108;2023-04-22T01:45:08;98927.84;;;10.59;100.00
21960;BME280;11144;43.030;25.108;2023-04-22T01:46:44;98917.41;;;10.56;100.00
21960;BME280;11144;43.030;25.108;2023-04-22T01:48:17;98935.78;;;10.59;100.00
21960;BME280;11144;43.030;25.108;2023-04-22T01:49:51;98925.38;;;10.55;100.00
21960;BME280;11144;43.030;25.108;2023-04-22T01:51:24;98924.56;;;10.54;100.00
21960;BME280;11144;43.030;25.108;2023-04-22T01:53:00;98928.09;;;10.53;100.00
21960;BME280;11144;43.030;25.108;2023-04-22T01:54:34;98928.09;;;10.53;100.00
21960;BME280;11144;43.030;25.108;2023-04-22T01:56:07;98929.03;;;10.52;100.00
21960;BME280;11144;43.030;25.108;2023-04-22T01:57:41;98923.81;;;10.51;100.00
21960;BME280;11144;43.030;25.108;2023-04-22T01:59:15;98926.56;;;10.48;100.00
21960;BME280;11144;43.030;25.108;2023-04-22T02:00:47;98925.19;;;10.39;100.00
21960;BME280;11144;43.030;25.108;2023-04-22T02:02:20;98921.31;;;10.26;100.00
21960;BME280;11144;43.030;25.108;2023-04-22T02:03:54;98924.22;;;10.20;100.00
21960;BME280;11144;43.030;25.108;2023-04-22T02:05:27;98919.84;;;10.19;100.00
21960;BME280;11144;43.030;25.108;2023-04-22T02:07:00;98931.22;;;10.21;100.00
21960;BME280;11144;43.030;25.108;2023-04-22T02:08:33;98926.88;;;10.20;100.00
21960;BME280;11144;43.030;25.108;2023-04-22T02:10:09;98922.50;;;10.19;100.00
21960;BME280;11144;43.030;25.108;2023-04-22T02:11:42;98919.06;;;10.17;100.00
21960;BME280;11144;43.030;25.108;2023-04-22T02:13:16;98926.19;;;10.15;100.00
21960;BME280;11144;43.030;25.108;2023-04-22T02:14:49;98921.78;;;10.15;100.00
21960;BME280;11144;43.030;25.108;2023-04-22T02:16:22;98919.31;;;10.11;100.00
21960;BME280;11144;43.030;25.108;2023-04-22T02:17:56;98924.59;;;10.11;100.00
21960;BME280;11144;43.030;25.108;2023-04-22T02:19:29;98922.75;;;10.13;100.00
21960;BME280;11144;43.030;25.108;2023-04-22T02:21:01;98920.13;;;10.13;100.00
21960;BME280;11144;43.030;25.108;2023-04-22T02:22:35;98913.91;;;10.14;100.00
21960;BME280;11144;43.030;25.108;2023-04-22T02:24:08;98916.50;;;10.15;100.00
21960;BME280;11144;43.030;25.108;2023-04-22T02:25:47;98925.94;;;10.21;100.00
21960;BME280;11144;43.030;25.108;2023-04-22T02:27:22;98924.03;;;10.24;100.00
21960;BME280;11144;43.030;25.108;2023-04-22T02:28:56;98921.25;;;10.27;100.00
21960;BME280;11144;43.030;25.108;2023-04-22T02:30:30;98916.69;;;10.31;100.00
21960;BME280;11144;43.030;25.108;2023-04-22T02:32:04;98915.09;;;10.27;100.00
21960;BME280;11144;43.030;25.108;2023-04-22T02:33:37;98912.97;;;10.15;100.00
21960;BME280;11144;43.030;25.108;2023-04-22T02:35:13;98912.03;;;10.16;100.00
21960;BME280;11144;43.030;25.108;2023-04-22T02:36:45;98914.84;;;10.13;100.00
21960;BME280;11144;43.030;25.108;2023-04-22T02:38:19;98921.94;;;10.11;100.00
21960;BME280;11144;43.030;25.108;2023-04-22T02:39:52;98909.66;;;10.10;100.00
21960;BME280;11144;43.030;25.108;2023-04-22T02:41:27;98914.13;;;10.08;100.00
21960;BME280;11144;43.030;25.108;2023-04-22T02:43:00;98914.38;;;10.02;100.00
21960;BME280;11144;43.030;25.108;2023-04-22T02:44:33;98915.41;;;9.98;100.00
21960;BME280;11144;43.030;25.108;2023-04-22T02:46:06;98921.53;;;9.98;100.00
21960;BME280;11144;43.030;25.108;2023-04-22T02:47:41;98921.59;;;9.97;100.00
21960;BME280;11144;43.030;25.108;2023-04-22T02:49:14;98926.75;;;10.00;100.00
21960;BME280;11144;43.030;25.108;2023-04-22T02:50:48;98924.00;;;10.03;100.00
21960;BME280;11144;43.030;25.108;2023-04-22T02:52:21;98915.13;;;10.05;100.00
21960;BME280;11144;43.030;25.108;2023-04-22T02:53:54;98928.03;;;10.13;100.00
21960;BME280;11144;43.030;25.108;2023-04-22T02:55:28;98919.19;;;10.14;100.00
21960;BME280;11144;43.030;25.108;2023-04-22T02:57:01;98916.38;;;10.18;100.00
21960;BME280;11144;43.030;25.108;2023-04-22T02:58:35;98933.75;;;10.24;100.00
21960;BME280;11144;43.030;25.108;2023-04-22T03:00:09;98924.91;;;10.25;100.00
21960;BME280;11144;43.030;25.108;2023-04-22T03:01:41;98923.97;;;10.26;100.00
21960;BME280;11144;43.030;25.108;2023-04-22T03:03:21;98931.88;;;10.26;100.00
21960;BME280;11144;43.030;25.108;2023-04-22T03:04:55;98928.41;;;10.25;100.00
21960;BME280;11144;43.030;25.108;2023-04-22T03:06:28;98946.97;;;10.24;100.00
21960;BME280;11144;43.030;25.108;2023-04-22T03:08:02;98934.59;;;10.24;100.00
21960;BME280;11144;43.030;25.108;2023-04-22T03:09:35;98944.56;;;10.18;100.00
21960;BME280;11144;43.030;25.108;2023-04-22T03:11:08;98944.13;;;10.07;100.00
21960;BME280;11144;43.030;25.108;2023-04-22T03:12:43;98952.31;;;9.99;100.00
21960;BME280;11144;43.030;25.108;2023-04-22T03:14:16;98951.59;;;9.96;100.00
21960;BME280;11144;43.030;25.108;2023-04-22T03:15:49;98951.59;;;9.96;100.00
21960;BME280;11144;43.030;25.108;2023-04-22T03:17:23;98952.69;;;9.90;100.00
21960;BME280;11144;43.030;25.108;2023-04-22T03:18:57;98955.25;;;9.92;100.00
21960;BME280;11144;43.030;25.108;2023-04-22T03:20:31;98967.53;;;9.93;100.00
21960;BME280;11144;43.030;25.108;2023-04-22T03:22:04;98966.75;;;9.91;100.00
21960;BME280;11144;43.030;25.108;2023-04-22T03:23:38;98965.81;;;9.92;100.00
21960;BME280;11144;43.030;25.108;2023-04-22T03:25:11;98966.06;;;9.86;100.00
21960;BME280;11144;43.030;25.108;2023-04-22T03:26:48;98963.31;;;9.89;100.00
21960;BME280;11144;43.030;25.108;2023-04-22T03:28:23;98975.56;;;9.90;100.00
21960;BME280;11144;43.030;25.108;2023-04-22T03:29:57;98961.69;;;9.85;100.00
21960;BME280;11144;43.030;25.108;2023-04-22T03:31:30;98961.03;;;9.80;100.00
21960;BME280;11144;43.030;25.108;2023-04-22T03:33:03;98966.44;;;9.77;100.00
21960;BME280;11144;43.030;25.108;2023-04-22T03:34:43;98961.88;;;9.80;100.00
21960;BME280;11144;43.030;25.108;2023-04-22T03:36:17;98966.16;;;9.83;100.00
21960;BME280;11144;43.030;25.108;2023-04-22T03:37:50;98966.94;;;9.86;100.00
21960;BME280;11144;43.030;25.108;2023-04-22T03:39:32;98973.19;;;9.84;100.00
21960;BME280;11144;43.030;25.108;2023-04-22T03:41:05;98975.00;;;9.82;100.00
21960;BME280;11144;43.030;25.108;2023-04-22T03:42:45;98977.22;;;9.71;100.00
21960;BME280;11144;43.030;25.108;2023-04-22T03:44:22;98968.84;;;9.60;100.00
21960;BME280;11144;43.030;25.108;2023-04-22T03:45:56;98981.47;;;9.52;100.00
21960;BME280;11144;43.030;25.108;2023-04-22T03:47:32;98977.22;;;9.48;100.00
21960;BME280;11144;43.030;25.108;2023-04-22T03:49:12;98986.00;;;9.48;100.00
21960;BME280;11144;43.030;25.108;2023-04-22T03:50:47;98987.81;;;9.46;100.00
21960;BME280;11144;43.030;25.108;2023-04-22T03:52:21;98998.22;;;9.51;100.00
21960;BME280;11144;43.030;25.108;2023-04-22T03:54:01;98992.00;;;9.52;100.00
21960;BME280;11144;43.030;25.108;2023-04-22T03:55:37;99000.81;;;9.52;100.00
21960;BME280;11144;43.030;25.108;2023-04-22T03:57:11;99000.84;;;9.51;100.00
21960;BME280;11144;43.030;25.108;2023-04-22T03:58:45;99002.56;;;9.52;100.00
21960;BME280;11144;43.030;25.108;2023-04-22T04:00:19;99007.97;;;9.49;100.00
21960;BME280;11144;43.030;25.108;2023-04-22T04:02:03;99003.03;;;9.40;100.00
21960;BME280;11144;43.030;25.108;2023-04-22T04:03:37;99008.41;;;9.37;100.00
21960;BME280;11144;43.030;25.108;2023-04-22T04:05:12;98996.81;;;9.41;100.00
21960;BME280;11144;43.030;25.108;2023-04-22T04:06:46;99005.31;;;9.49;100.00
21960;BME280;11144;43.030;25.108;2023-04-22T04:08:19;99023.56;;;9.55;100.00
21960;BME280;11144;43.030;25.108;2023-04-22T04:09:53;99021.63;;;9.60;100.00
21960;BME280;11144;43.030;25.108;2023-04-22T04:11:25;99011.69;;;9.66;100.00
21960;BME280;11144;43.030;25.108;2023-04-22T04:13:00;99019.34;;;9.74;100.00
21960;BME280;11144;43.030;25.108;2023-04-22T04:14:41;99025.13;;;9.83;100.00
21960;BME280;11144;43.030;25.108;2023-04-22T04:16:19;99016.94;;;9.91;100.00
21960;BME280;11144;43.030;25.108;2023-04-22T04:17:58;99018.66;;;9.92;100.00
21960;BME280;11144;43.030;25.108;2023-04-22T04:19:35;99021.97;;;9.97;100.00
21960;BME280;11144;43.030;25.108;2023-04-22T04:21:09;99018.53;;;9.95;100.00
21960;BME280;11144;43.030;25.108;2023-04-22T04:22:47;99007.84;;;9.98;100.00
21960;BME280;11144;43.030;25.108;2023-04-22T04:24:20;99022.72;;;10.00;100.00
21960;BME280;11144;43.030;25.108;2023-04-22T04:25:55;99018.09;;;10.07;100.00
21960;BME280;11144;43.030;25.108;2023-04-22T04:27:28;99023.16;;;10.13;100.00
21960;BME280;11144;43.030;25.108;2023-04-22T04:29:01;99027.44;;;10.15;100.00
21960;BME280;11144;43.030;25.108;2023-04-22T04:30:37;99023.75;;;10.19;100.00
21960;BME280;11144;43.030;25.108;2023-04-22T04:32:14;99024.47;;;10.23;100.00
21960;BME280;11144;43.030;25.108;2023-04-22T04:33:49;99038.25;;;10.31;100.00
21960;BME280;11144;43.030;25.108;2023-04-22T04:35:23;99024.03;;;10.35;100.00
21960;BME280;11144;43.030;25.108;2023-04-22T04:36:59;99031.03;;;10.36;100.00
21960;BME280;11144;43.030;25.108;2023-04-22T04:38:43;99025.72;;;10.36;100.00
21960;BME280;11144;43.030;25.108;2023-04-22T04:40:16;99031.03;;;10.36;100.00
21960;BME280;11144;43.030;25.108;2023-04-22T04:42:09;99037.84;;;10.42;100.00
21960;BME280;11144;43.030;25.108;2023-04-22T04:43:51;99033.16;;;10.48;100.00
21960;BME280;11144;43.030;25.108;2023-04-22T04:45:34;99031.88;;;10.58;100.00
21960;BME280;11144;43.030;25.108;2023-04-22T04:47:09;99026.31;;;10.64;100.00
21960;BME280;11144;43.030;25.108;2023-04-22T04:48:45;99037.94;;;10.60;100.00
21960;BME280;11144;43.030;25.108;2023-04-22T04:50:20;99033.59;;;10.59;100.00
21960;BME280;11144;43.030;25.108;2023-04-22T04:51:54;99036.13;;;10.62;100.00
21960;BME280;11144;43.030;25.108;2023-04-22T04:53:27;99027.78;;;10.71;100.00
21960;BME280;11144;43.030;25.108;2023-04-22T04:55:00;99027.78;;;10.71;100.00
21960;BME280;11144;43.030;25.108;2023-04-22T04:56:36;99040.59;;;10.82;100.00
21960;BME280;11144;43.030;25.108;2023-04-22T04:58:11;99033.91;;;10.93;100.00
21960;BME280;11144;43.030;25.108;2023-04-22T04:59:44;99040.44;;;11.06;100.00
21960;BME280;11144;43.030;25.108;2023-04-22T05:01:18;99034.72;;;11.15;100.00
21960;BME280;11144;43.030;25.108;2023-04-22T05:02:52;99041.09;;;11.31;100.00
21960;BME280;11144;43.030;25.108;2023-04-22T05:04:26;99042.41;;;11.41;100.00
21960;BME280;11144;43.030;25.108;2023-04-22T05:06:01;99043.84;;;11.48;100.00
21960;BME280;11144;43.030;25.108;2023-04-22T05:07:35;99050.72;;;11.52;100.00
21960;BME280;11144;43.030;25.108;2023-04-22T05:09:07;99052.09;;;11.62;100.00
21960;BME280;11144;43.030;25.108;2023-04-22T05:10:41;99050.09;;;11.67;100.00
21960;BME280;11144;43.030;25.108;2023-04-22T05:12:15;99055.13;;;11.73;100.00
21960;BME280;11144;43.030;25.108;2023-04-22T05:13:49;99048.69;;;11.79;100.00
21960;BME280;11144;43.030;25.108;2023-04-22T05:15:29;99045.41;;;11.74;100.00
21960;BME280;11144;43.030;25.108;2023-04-22T05:17:02;99044.53;;;11.73;100.00
21960;BME280;11144;43.030;25.108;2023-04-22T05:18:36;99047.81;;;11.78;100.00
21960;BME280;11144;43.030;25.108;2023-04-22T05:20:14;99052.47;;;11.73;100.00
21960;BME280;11144;43.030;25.108;2023-04-22T05:21:49;99058.56;;;11.75;100.00
21960;BME280;11144;43.030;25.108;2023-04-22T05:23:22;99056.00;;;11.74;100.00
21960;BME280;11144;43.030;25.108;2023-04-22T05:24:57;99049.81;;;11.73;100.00
21960;BME280;11144;43.030;25.108;2023-04-22T05:26:31;99057.13;;;11.68;100.00
21960;BME280;11144;43.030;25.108;2023-04-22T05:28:08;99054.06;;;11.57;100.00
21960;BME280;11144;43.030;25.108;2023-04-22T05:29:49;99055.19;;;11.52;100.00
21960;BME280;11144;43.030;25.108;2023-04-22T05:31:27;99053.31;;;11.54;100.00
21960;BME280;11144;43.030;25.108;2023-04-22T05:33:01;99057.38;;;11.62;100.00
21960;BME280;11144;43.030;25.108;2023-04-22T05:34:37;99059.09;;;11.63;100.00
21960;BME280;11144;43.030;25.108;2023-04-22T05:36:12;99062.56;;;11.65;100.00
21960;BME280;11144;43.030;25.108;2023-04-22T05:37:47;99060.69;;;11.67;100.00
21960;BME280;11144;43.030;25.108;2023-04-22T05:39:20;99056.13;;;11.71;100.00
21960;BME280;11144;43.030;25.108;2023-04-22T05:40:54;99055.00;;;11.76;100.00
21960;BME280;11144;43.030;25.108;2023-04-22T05:42:30;99054.69;;;11.82;100.00
21960;BME280;11144;43.030;25.108;2023-04-22T05:44:04;99056.31;;;11.86;100.00
21960;BME280;11144;43.030;25.108;2023-04-22T05:45:38;99050.91;;;11.88;100.00
21960;BME280;11144;43.030;25.108;2023-04-22T05:47:14;99054.44;;;11.88;100.00
21960;BME280;11144;43.030;25.108;2023-04-22T05:48:47;99041.31;;;11.85;100.00
21960;BME280;11144;43.030;25.108;2023-04-22T05:50:44;99062.09;;;11.94;100.00
21960;BME280;11144;43.030;25.108;2023-04-22T05:52:18;99059.47;;;11.94;100.00
21960;BME280;11144;43.030;25.108;2023-04-22T05:54:17;99057.59;;;11.96;100.00
21960;BME280;11144;43.030;25.108;2023-04-22T05:55:51;99063.88;;;11.94;100.00
21960;BME280;11144;43.030;25.108;2023-04-22T05:57:24;99054.16;;;11.94;100.00
21960;BME280;11144;43.030;25.108;2023-04-22T05:58:57;99059.31;;;11.97;100.00
21960;BME280;11144;43.030;25.108;2023-04-22T06:00:31;99066.97;;;12.03;100.00
21960;BME280;11144;43.030;25.108;2023-04-22T06:02:18;99069.28;;;12.11;100.00
21960;BME280;11144;43.030;25.108;2023-04-22T06:03:52;99064.69;;;12.14;100.00
21960;BME280;11144;43.030;25.108;2023-04-22T06:05:27;99065.34;;;12.19;100.00
21960;BME280;11144;43.030;25.108;2023-04-22T06:07:01;99063.34;;;12.24;100.00
21960;BME280;11144;43.030;25.108;2023-04-22T06:08:37;99066.63;;;12.29;100.00
21960;BME280;11144;43.030;25.108;2023-04-22T06:10:10;99066.56;;;12.31;100.00
21960;BME280;11144;43.030;25.108;2023-04-22T06:11:43;99072.72;;;12.31;100.00
21960;BME280;11144;43.030;25.108;2023-04-22T06:13:17;99070.91;;;12.32;100.00
21960;BME280;11144;43.030;25.108;2023-04-22T06:14:50;99077.09;;;12.32;100.00
21960;BME280;11144;43.030;25.108;2023-04-22T06:16:23;99078.53;;;12.39;100.00
21960;BME280;11144;43.030;25.108;2023-04-22T06:17:57;99078.06;;;12.48;100.00
21960;BME280;11144;43.030;25.108;2023-04-22T06:19:30;99080.44;;;12.54;100.00
21960;BME280;11144;43.030;25.108;2023-04-22T06:21:04;99081.25;;;12.56;100.00
21960;BME280;11144;43.030;25.108;2023-04-22T06:22:39;99081.06;;;12.59;100.00
21960;BME280;11144;43.030;25.108;2023-04-22T06:24:14;99080.94;;;12.62;100.00
21960;BME280;11144;43.030;25.108;2023-04-22T06:25:47;99079.09;;;12.64;100.00
21960;BME280;11144;43.030;25.108;2023-04-22T06:27:22;99093.59;;;12.74;100.00
21960;BME280;11144;43.030;25.108;2023-04-22T06:28:55;99078.63;;;12.73;100.00
21960;BME280;11144;43.030;25.108;2023-04-22T06:30:29;99086.09;;;12.84;100.00
21960;BME280;11144;43.030;25.108;2023-04-22T06:32:02;99088.50;;;12.88;100.00
21960;BME280;11144;43.030;25.108;2023-04-22T06:33:36;99080.53;;;12.88;100.00
21960;BME280;11144;43.030;25.108;2023-04-22T06:35:09;99079.75;;;12.86;100.00
21960;BME280;11144;43.030;25.108;2023-04-22T06:36:43;99083.19;;;12.88;100.00
21960;BME280;11144;43.030;25.108;2023-04-22T06:38:16;99090.38;;;12.86;100.00
21960;BME280;11144;43.030;25.108;2023-04-22T06:40:11;99085.00;;;12.88;100.00
21960;BME280;11144;43.030;25.108;2023-04-22T06:42:06;99087.34;;;12.94;100.00
21960;BME280;11144;43.030;25.108;2023-04-22T06:44:05;99096.09;;;12.96;100.00
21960;BME280;11144;43.030;25.108;2023-04-22T06:45:53;99092.47;;;12.98;100.00
21960;BME280;11144;43.030;25.108;2023-04-22T06:47:47;99092.09;;;13.06;100.00
21960;BME280;11144;43.030;25.108;2023-04-22T06:49:26;99095.59;;;13.06;100.00
21960;BME280;11144;43.030;25.108;2023-04-22T06:51:16;99090.28;;;13.06;100.00
21960;BME280;11144;43.030;25.108;2023-04-22T06:52:50;99094.50;;;13.10;100.00
21960;BME280;11144;43.030;25.108;2023-04-22T06:54:23;99095.16;;;13.15;100.00
21960;BME280;11144;43.030;25.108;2023-04-22T06:55:57;99092.16;;;13.21;100.00
21960;BME280;11144;43.030;25.108;2023-04-22T06:57:31;99091.88;;;13.27;100.00
21960;BME280;11144;43.030;25.108;2023-04-22T06:59:04;99096.09;;;13.31;100.00
21960;BME280;11144;43.030;25.108;2023-04-22T07:00:39;99092.56;;;13.31;100.00
21960;BME280;11144;43.030;25.108;2023-04-22T07:02:13;99097.03;;;13.30;100.00
21960;BME280;11144;43.030;25.108;2023-04-22T07:03:47;99096.84;;;13.33;100.00
21960;BME280;11144;43.030;25.108;2023-04-22T07:05:23;99101.78;;;13.41;100.00
21960;BME280;11144;43.030;25.108;2023-04-22T07:06:56;99103.44;;;13.43;100.00
21960;BME280;11144;43.030;25.108;2023-04-22T07:08:29;99095.91;;;13.51;100.00
21960;BME280;11144;43.030;25.108;2023-04-22T07:10:03;99101.09;;;13.54;100.00
21960;BME280;11144;43.030;25.108;2023-04-22T07:11:47;99097.47;;;13.55;100.00
21960;BME280;11144;43.030;25.108;2023-04-22T07:13:23;99102.50;;;13.61;100.00
21960;BME280;11144;43.030;25.108;2023-04-22T07:14:57;99097.03;;;13.64;100.00
21960;BME280;11144;43.030;25.108;2023-04-22T07:16:31;99103.75;;;13.72;100.00
21960;BME280;11144;43.030;25.108;2023-04-22T07:18:04;99094.06;;;13.71;100.00
21960;BME280;11144;43.030;25.108;2023-04-22T07:19:38;99100.13;;;13.73;100.00
21960;BME280;11144;43.030;25.108;2023-04-22T07:21:12;99094.66;;;13.76;100.00
21960;BME280;11144;43.030;25.108;2023-04-22T07:22:45;99096.53;;;13.73;100.00
21960;BME280;11144;43.030;25.108;2023-04-22T07:24:18;99101.00;;;13.73;100.00
21960;BME280;11144;43.030;25.108;2023-04-22T07:25:51;99093.91;;;13.56;100.00
21960;BME280;11144;43.030;25.108;2023-04-22T07:27:25;99091.84;;;13.61;100.00
21960;BME280;11144;43.030;25.108;2023-04-22T07:28:59;99092.41;;;13.68;100.00
21960;BME280;11144;43.030;25.108;2023-04-22T07:30:32;99093.25;;;13.68;100.00
21960;BME280;11144;43.030;25.108;2023-04-22T07:32:05;99101.09;;;13.54;100.00
21960;BME280;11144;43.030;25.108;2023-04-22T07:33:38;99104.19;;;13.62;100.00
21960;BME280;11144;43.030;25.108;2023-04-22T07:35:12;99114.53;;;13.68;100.00
21960;BME280;11144;43.030;25.108;2023-04-22T07:36:46;99105.00;;;13.64;100.00
21960;BME280;11144;43.030;25.108;2023-04-22T07:38:19;99109.06;;;13.72;100.00
21960;BME280;11144;43.030;25.108;2023-04-22T07:39:52;99113.88;;;13.81;100.00
21960;BME280;11144;43.030;25.108;2023-04-22T07:41:25;99114.75;;;13.81;100.00
21960;BME280;11144;43.030;25.108;2023-04-22T07:42:59;99111.84;;;13.86;100.00
21960;BME280;11144;43.030;25.108;2023-04-22T07:44:32;99113.41;;;13.90;100.00
21960;BME280;11144;43.030;25.108;2023-04-22T07:46:10;99115.13;;;13.91;100.00
21960;BME280;11144;43.030;25.108;2023-04-22T07:47:43;99108.94;;;13.90;100.00
21960;BME280;11144;43.030;25.108;2023-04-22T07:49:17;99121.91;;;13.96;100.00
21960;BME280;11144;43.030;25.108;2023-04-22T07:50:50;99115.81;;;13.94;100.00
21960;BME280;11144;43.030;25.108;2023-04-22T07:52:24;99116.38;;;14.01;100.00
21960;BME280;11144;43.030;25.108;2023-04-22T07:53:57;99121.69;;;14.01;100.00
21960;BME280;11144;43.030;25.108;2023-04-22T07:55:30;99116.66;;;14.12;100.00
21960;BME280;11144;43.030;25.108;2023-04-22T07:57:03;99120.38;;;14.25;100.00
21960;BME280;11144;43.030;25.108;2023-04-22T07:58:38;99116.47;;;14.32;100.00
21960;BME280;11144;43.030;25.108;2023-04-22T08:00:11;99120.34;;;14.42;100.00
21960;BME280;11144;43.030;25.108;2023-04-22T08:01:45;99125.31;;;14.48;100.00
21960;BME280;11144;43.030;25.108;2023-04-22T08:03:18;99120.78;;;14.50;100.00
21960;BME280;11144;43.030;25.108;2023-04-22T08:04:52;99114.06;;;14.43;100.00
21960;BME280;11144;43.030;25.108;2023-04-22T08:06:25;99120.28;;;14.43;100.00
21960;BME280;11144;43.030;25.108;2023-04-22T08:08:00;99115.63;;;14.47;100.00
21960;BME280;11144;43.030;25.108;2023-04-22T08:09:33;99118.56;;;14.58;100.00